sensor_id;sensor_type;location;lat;lon;timestamp;temperature;humidity
27200;DHT22;14714;48.106;11.546;2023-03-02T00:04:00;0.90;99.90
27200;DHT22;14714;48.106;11.546;2023-03-02T00:06:28;0.90;99.90
27200;DHT22;14714;48.106;11.546;2023-03-02T00:08:57;0.90;99.90
27200;DHT22;14714;48.106;11.546;2023-03-02T00:11:29;0.90;99.90
27200;DHT22;14714;48.106;11.546;2023-03-02T00:13:57;0.80;99.90
27200;DHT22;14714;48.106;11.546;2023-03-02T00:16:23;0.90;99.90
27200;DHT22;14714;48.106;11.546;2023-03-02T00:18:50;0.90;99.90
27200;DHT22;14714;48.106;11.546;2023-03-02T00:21:17;0.90;99.90
27200;DHT22;14714;48.106;11.546;2023-03-02T00:23:43;0.90;99.90
27200;DHT22;14714;48.106;11.546;2023-03-02T00:26:10;0.90;99.90
27200;DHT22;14714;48.106;11.546;2023-03-02T00:28:37;0.90;99.90
27200;DHT22;14714;48.106;11.546;2023-03-02T00:31:03;0.90;99.90
27200;DHT22;14714;48.106;11.546;2023-03-02T00:33:31;0.90;99.90
27200;DHT22;14714;48.106;11.546;2023-03-02T00:35:57;0.90;99.90
27200;DHT22;14714;48.106;11.546;2023-03-02T00:38:24;0.90;99.90
27200;DHT22;14714;48.106;11.546;2023-03-02T00:40:52;0.90;99.90
27200;DHT22;14714;48.106;11.546;2023-03-02T00:43:21;0.90;99.90
27200;DHT22;14714;48.106;11.546;2023-03-02T00:45:53;0.80;99.90
27200;DHT22;14714;48.106;11.546;2023-03-02T00:48:19;0.80;99.90
27200;DHT22;14714;48.106;11.546;2023-03-02T00:50:46;0.80;99.90
27200;DHT22;14714;48.106;11.546;2023-03-02T00:53:13;0.70;99.90
27200;DHT22;14714;48.106;11.546;2023-03-02T00:55:39;0.70;99.90
27200;DHT22;14714;48.106;11.546;2023-03-02T00:58:06;0.70;99.90
27200;DHT22;14714;48.106;11.546;2023-03-02T01:00:33;0.60;99.90
27200;DHT22;14714;48.106;11.546;2023-03-02T01:03:01;0.60;99.90
27200;DHT22;14714;48.106;11.546;2023-03-02T01:05:27;0.50;99.90
27200;DHT22;14714;48.106;11.546;2023-03-02T01:07:54;0.50;99.90
27200;DHT22;14714;48.106;11.546;2023-03-02T01:10:21;0.50;99.90
27200;DHT22;14714;48.106;11.546;2023-03-02T01:12:47;0.60;99.90
27200;DHT22;14714;48.106;11.546;2023-03-02T01:15:14;0.60;99.90
27200;DHT22;14714;48.106;11.546;2023-03-02T01:17:41;0.70;99.90
27200;DHT22;14714;48.106;11.546;2023-03-02T01:20:10;0.70;99.90
27200;DHT22;14714;48.106;11.546;2023-03-02T01:22:36;0.70;99.90
27200;DHT22;14714;48.106;11.546;2023-03-02T01:25:03;0.70;99.90
27200;DHT22;14714;48.106;11.546;2023-03-02T01:27:30;0.80;99.90
27200;DHT22;14714;48.106;11.546;2023-03-02T01:29:57;0.80;99.90
27200;DHT22;14714;48.106;11.546;2023-03-02T01:32:23;0.80;99.90
27200;DHT22;14714;48.106;11.546;2023-03-02T01:34:50;0.80;99.90
27200;DHT22;14714;48.106;11.546;2023-03-02T01:37:17;0.80;99.90
27200;DHT22;14714;48.106;11.546;2023-03-02T01:39:44;0.80;99.90
27200;DHT22;14714;48.106;11.546;2023-03-02T01:42:10;0.80;99.90
27200;DHT22;14714;48.106;11.546;2023-03-02T01:44:45;0.80;99.90
27200;DHT22;14714;48.106;11.546;2023-03-02T01:49:43;0.70;99.90
27200;DHT22;14714;48.106;11.546;2023-03-02T01:52:10;0.80;99.90
27200;DHT22;14714;48.106;11.546;2023-03-02T01:54:38;0.80;99.90
27200;DHT22;14714;48.106;11.546;2023-03-02T01:57:05;0.80;99.90
27200;DHT22;14714;48.106;11.546;2023-03-02T01:59:34;0.70;99.90
27200;DHT22;14714;48.106;11.546;2023-03-02T02:02:03;0.70;99.90
27200;DHT22;14714;48.106;11.546;2023-03-02T02:04:30;0.70;99.90
27200;DHT22;14714;48.106;11.546;2023-03-02T02:07:01;0.70;99.90
27200;DHT22;14714;48.106;11.546;2023-03-02T02:09:29;0.80;99.90
27200;DHT22;14714;48.106;11.546;2023-03-02T02:11:57;0.80;99.90
27200;DHT22;14714;48.106;11.546;2023-03-02T02:14:24;0.80;99.90
27200;DHT22;14714;48.106;11.546;2023-03-02T02:16:50;0.80;99.90
27200;DHT22;14714;48.106;11.546;2023-03-02T02:19:32;0.70;99.90
27200;DHT22;14714;48.106;11.546;2023-03-02T02:22:00;0.70;99.90
27200;DHT22;14714;48.106;11.546;2023-03-02T02:26:55;0.70;99.90
27200;DHT22;14714;48.106;11.546;2023-03-02T02:29:27;0.70;99.90
27200;DHT22;14714;48.106;11.546;2023-03-02T02:34:24;0.60;99.90
27200;DHT22;14714;48.106;11.546;2023-03-02T02:36:53;0.60;99.90
27200;DHT22;14714;48.106;11.546;2023-03-02T02:39:23;0.60;99.90
27200;DHT22;14714;48.106;11.546;2023-03-02T02:41:51;0.50;99.90
27200;DHT22;14714;48.106;11.546;2023-03-02T02:44:19;0.50;99.90
27200;DHT22;14714;48.106;11.546;2023-03-02T02:46:46;0.50;99.90
27200;DHT22;14714;48.106;11.546;2023-03-02T02:49:17;0.50;99.90
27200;DHT22;14714;48.106;11.546;2023-03-02T02:51:46;0.40;99.90
27200;DHT22;14714;48.106;11.546;2023-03-02T02:54:13;0.40;99.90
27200;DHT22;14714;48.106;11.546;2023-03-02T02:56:42;0.40;99.90
27200;DHT22;14714;48.106;11.546;2023-03-02T02:59:14;0.40;99.90
27200;DHT22;14714;48.106;11.546;2023-03-02T03:01:42;0.30;99.90
27200;DHT22;14714;48.106;11.546;2023-03-02T03:04:09;0.30;99.90
27200;DHT22;14714;48.106;11.546;2023-03-02T03:06:37;0.30;99.90
27200;DHT22;14714;48.106;11.546;2023-03-02T03:09:14;0.20;99.90
27200;DHT22;14714;48.106;11.546;2023-03-02T03:11:41;0.20;99.90
27200;DHT22;14714;48.106;11.546;2023-03-02T03:14:09;0.20;99.90
27200;DHT22;14714;48.106;11.546;2023-03-02T03:16:37;0.20;99.90
27200;DHT22;14714;48.106;11.546;2023-03-02T03:19:27;0.20;99.90
27200;DHT22;14714;48.106;11.546;2023-03-02T03:21:52;0.20;99.90
27200;DHT22;14714;48.106;11.546;2023-03-02T03:24:19;0.20;99.90
27200;DHT22;14714;48.106;11.546;2023-03-02T03:26:46;0.20;99.90
27200;DHT22;14714;48.106;11.546;2023-03-02T03:29:13;0.20;99.90
27200;DHT22;14714;48.106;11.546;2023-03-02T03:31:40;0.20;99.90
27200;DHT22;14714;48.106;11.546;2023-03-02T03:34:07;0.20;99.90
27200;DHT22;14714;48.106;11.546;2023-03-02T03:36:34;0.20;99.90
27200;DHT22;14714;48.106;11.546;2023-03-02T03:39:02;0.20;99.90
27200;DHT22;14714;48.106;11.546;2023-03-02T03:41:29;0.20;99.90
27200;DHT22;14714;48.106;11.546;2023-03-02T03:43:56;0.10;99.90
27200;DHT22;14714;48.106;11.546;2023-03-02T03:46:22;0.10;99.90
27200;DHT22;14714;48.106;11.546;2023-03-02T03:48:49;0.10;99.90
27200;DHT22;14714;48.106;11.546;2023-03-02T03:51:16;0.00;99.90
27200;DHT22;14714;48.106;11.546;2023-03-02T03:53:43;0.00;99.90
27200;DHT22;14714;48.106;11.546;2023-03-02T03:56:09;0.00;99.90
27200;DHT22;14714;48.106;11.546;2023-03-02T03:58:36;0.00;99.90
27200;DHT22;14714;48.106;11.546;2023-03-02T04:01:03;0.00;99.90
27200;DHT22;14714;48.106;11.546;2023-03-02T04:03:30;0.00;99.90
27200;DHT22;14714;48.106;11.546;2023-03-02T04:05:56;0.00;99.90
27200;DHT22;14714;48.106;11.546;2023-03-02T04:08:23;0.00;99.90
27200;DHT22;14714;48.106;11.546;2023-03-02T04:10:50;0.00;99.90
27200;DHT22;14714;48.106;11.546;2023-03-02T04:13:16;0.00;99.90
27200;DHT22;14714;48.106;11.546;2023-03-02T04:15:43;0.00;99.90
27200;DHT22;14714;48.106;11.546;2023-03-02T04:18:12;0.00;99.90
27200;DHT22;14714;48.106;11.546;2023-03-02T04:20:39;0.00;99.90
27200;DHT22;14714;48.106;11.546;2023-03-02T04:23:05;0.00;99.90
27200;DHT22;14714;48.106;11.546;2023-03-02T04:25:32;0.00;99.90
27200;DHT22;14714;48.106;11.546;2023-03-02T04:27:59;-0.10;99.90
27200;DHT22;14714;48.106;11.546;2023-03-02T04:30:26;-0.10;99.90
27200;DHT22;14714;48.106;11.546;2023-03-02T04:32:52;-0.10;99.90
27200;DHT22;14714;48.106;11.546;2023-03-02T04:35:19;-0.10;99.90
27200;DHT22;14714;48.106;11.546;2023-03-02T04:37:46;-0.10;99.90
27200;DHT22;14714;48.106;11.546;2023-03-02T04:40:13;-0.20;99.90
27200;DHT22;14714;48.106;11.546;2023-03-02T04:42:40;-0.20;99.90
27200;DHT22;14714;48.106;11.546;2023-03-02T04:45:07;-0.20;99.90
27200;DHT22;14714;48.106;11.546;2023-03-02T04:47:34;-0.20;99.90
27200;DHT22;14714;48.106;11.546;2023-03-02T04:50:00;-0.30;99.90
27200;DHT22;14714;48.106;11.546;2023-03-02T04:52:27;-0.30;99.90
27200;DHT22;14714;48.106;11.546;2023-03-02T04:54:54;-0.30;99.90
27200;DHT22;14714;48.106;11.546;2023-03-02T04:57:20;-0.30;99.90
27200;DHT22;14714;48.106;11.546;2023-03-02T04:59:47;-0.30;99.90
27200;DHT22;14714;48.106;11.546;2023-03-02T05:02:14;-0.30;99.90
27200;DHT22;14714;48.106;11.546;2023-03-02T05:04:40;-0.30;99.90
27200;DHT22;14714;48.106;11.546;2023-03-02T05:07:07;-0.30;99.90
27200;DHT22;14714;48.106;11.546;2023-03-02T05:09:34;-0.30;99.90
27200;DHT22;14714;48.106;11.546;2023-03-02T05:12:01;-0.30;99.90
27200;DHT22;14714;48.106;11.546;2023-03-02T05:14:28;-0.40;99.90
27200;DHT22;14714;48.106;11.546;2023-03-02T05:16:55;-0.40;99.90
27200;DHT22;14714;48.106;11.546;2023-03-02T05:19:22;-0.40;99.90
27200;DHT22;14714;48.106;11.546;2023-03-02T05:21:48;-0.50;99.90
27200;DHT22;14714;48.106;11.546;2023-03-02T05:24:15;-0.50;99.90
27200;DHT22;14714;48.106;11.546;2023-03-02T05:26:42;-0.60;99.90
27200;DHT22;14714;48.106;11.546;2023-03-02T05:29:08;-0.60;99.90
27200;DHT22;14714;48.106;11.546;2023-03-02T05:31:37;-0.60;99.90
27200;DHT22;14714;48.106;11.546;2023-03-02T05:34:05;-0.60;99.90
27200;DHT22;14714;48.106;11.546;2023-03-02T05:36:32;-0.60;99.90
27200;DHT22;14714;48.106;11.546;2023-03-02T05:38:59;-0.70;99.90
27200;DHT22;14714;48.106;11.546;2023-03-02T05:41:26;-0.70;99.90
27200;DHT22;14714;48.106;11.546;2023-03-02T05:43:53;-0.70;99.90
27200;DHT22;14714;48.106;11.546;2023-03-02T05:46:20;-0.70;99.90
27200;DHT22;14714;48.106;11.546;2023-03-02T05:48:47;-0.80;99.90
27200;DHT22;14714;48.106;11.546;2023-03-02T05:51:14;-0.80;99.90
27200;DHT22;14714;48.106;11.546;2023-03-02T05:53:41;-0.80;99.90
27200;DHT22;14714;48.106;11.546;2023-03-02T05:56:07;-0.80;99.90
27200;DHT22;14714;48.106;11.546;2023-03-02T05:58:34;-0.80;99.90
27200;DHT22;14714;48.106;11.546;2023-03-02T06:01:01;-0.80;99.90
27200;DHT22;14714;48.106;11.546;2023-03-02T06:03:28;-0.70;99.90
27200;DHT22;14714;48.106;11.546;2023-03-02T06:05:54;-0.70;99.90
27200;DHT22;14714;48.106;11.546;2023-03-02T06:08:21;-0.70;99.90
27200;DHT22;14714;48.106;11.546;2023-03-02T06:10:48;-0.70;99.90
27200;DHT22;14714;48.106;11.546;2023-03-02T06:13:16;-0.70;99.90
27200;DHT22;14714;48.106;11.546;2023-03-02T06:15:43;-0.60;99.90
27200;DHT22;14714;48.106;11.546;2023-03-02T06:18:10;-0.60;99.90
27200;DHT22;14714;48.106;11.546;2023-03-02T06:20:38;-0.50;99.90
27200;DHT22;14714;48.106;11.546;2023-03-02T06:23:05;-0.40;99.90
27200;DHT22;14714;48.106;11.546;2023-03-02T06:25:32;-0.30;99.90
27200;DHT22;14714;48.106;11.546;2023-03-02T06:28:01;-0.20;99.90
27200;DHT22;14714;48.106;11.546;2023-03-02T06:30:27;-0.10;99.90
27200;DHT22;14714;48.106;11.546;2023-03-02T06:32:54;0.00;99.90
27200;DHT22;14714;48.106;11.546;2023-03-02T06:35:21;0.10;99.90
27200;DHT22;14714;48.106;11.546;2023-03-02T06:37:49;0.30;99.90
27200;DHT22;14714;48.106;11.546;2023-03-02T06:40:16;0.30;99.90
27200;DHT22;14714;48.106;11.546;2023-03-02T06:42:43;0.40;99.90
27200;DHT22;14714;48.106;11.546;2023-03-02T06:45:10;0.60;99.90
27200;DHT22;14714;48.106;11.546;2023-03-02T06:47:37;0.70;99.90
27200;DHT22;14714;48.106;11.546;2023-03-02T06:50:04;0.80;99.90
27200;DHT22;14714;48.106;11.546;2023-03-02T06:52:31;0.90;99.90
27200;DHT22;14714;48.106;11.546;2023-03-02T06:54:58;1.10;99.90
27200;DHT22;14714;48.106;11.546;2023-03-02T06:57:25;1.20;99.90
27200;DHT22;14714;48.106;11.546;2023-03-02T07:00:00;1.40;99.90
27200;DHT22;14714;48.106;11.546;2023-03-02T07:02:27;1.60;99.90
27200;DHT22;14714;48.106;11.546;2023-03-02T07:04:54;1.90;99.90
27200;DHT22;14714;48.106;11.546;2023-03-02T07:07:21;2.20;99.90
27200;DHT22;14714;48.106;11.546;2023-03-02T07:09:47;2.40;99.90
27200;DHT22;14714;48.106;11.546;2023-03-02T07:12:14;2.60;99.90
27200;DHT22;14714;48.106;11.546;2023-03-02T07:14:40;2.90;99.90
27200;DHT22;14714;48.106;11.546;2023-03-02T07:17:07;3.10;99.90
27200;DHT22;14714;48.106;11.546;2023-03-02T07:19:34;3.40;99.90
27200;DHT22;14714;48.106;11.546;2023-03-02T07:22:01;3.50;99.90
27200;DHT22;14714;48.106;11.546;2023-03-02T07:24:27;3.70;99.90
27200;DHT22;14714;48.106;11.546;2023-03-02T07:26:54;3.90;99.90
27200;DHT22;14714;48.106;11.546;2023-03-02T07:29:20;4.00;99.90
27200;DHT22;14714;48.106;11.546;2023-03-02T07:31:47;4.20;99.90
27200;DHT22;14714;48.106;11.546;2023-03-02T07:34:14;4.20;99.90
27200;DHT22;14714;48.106;11.546;2023-03-02T07:36:41;4.30;99.90
27200;DHT22;14714;48.106;11.546;2023-03-02T07:39:08;4.40;99.90
27200;DHT22;14714;48.106;11.546;2023-03-02T07:41:35;4.60;99.90
27200;DHT22;14714;48.106;11.546;2023-03-02T07:44:01;4.60;99.90
27200;DHT22;14714;48.106;11.546;2023-03-02T07:46:28;4.80;99.90
27200;DHT22;14714;48.106;11.546;2023-03-02T07:48:54;5.00;99.90
27200;DHT22;14714;48.106;11.546;2023-03-02T07:51:21;5.30;99.90
27200;DHT22;14714;48.106;11.546;2023-03-02T07:53:48;5.70;99.90
27200;DHT22;14714;48.106;11.546;2023-03-02T07:56:15;6.10;99.90
27200;DHT22;14714;48.106;11.546;2023-03-02T07:58:41;6.50;99.90
27200;DHT22;14714;48.106;11.546;2023-03-02T08:01:08;6.80;99.90
27200;DHT22;14714;48.106;11.546;2023-03-02T08:03:35;7.10;99.90
27200;DHT22;14714;48.106;11.546;2023-03-02T08:06:06;7.20;99.90
27200;DHT22;14714;48.106;11.546;2023-03-02T08:08:34;7.40;99.90
27200;DHT22;14714;48.106;11.546;2023-03-02T08:11:07;7.80;99.90
27200;DHT22;14714;48.106;11.546;2023-03-02T08:13:34;8.20;99.90
27200;DHT22;14714;48.106;11.546;2023-03-02T08:16:02;8.40;99.90
27200;DHT22;14714;48.106;11.546;2023-03-02T08:18:29;8.40;99.90
27200;DHT22;14714;48.106;11.546;2023-03-02T08:20:56;8.60;99.90
27200;DHT22;14714;48.106;11.546;2023-03-02T08:23:23;8.50;99.90
27200;DHT22;14714;48.106;11.546;2023-03-02T08:25:50;8.50;99.90
27200;DHT22;14714;48.106;11.546;2023-03-02T08:28:18;8.50;99.90
27200;DHT22;14714;48.106;11.546;2023-03-02T08:30:44;8.30;99.90
27200;DHT22;14714;48.106;11.546;2023-03-02T08:33:11;8.50;99.90
27200;DHT22;14714;48.106;11.546;2023-03-02T08:35:37;8.50;99.90
27200;DHT22;14714;48.106;11.546;2023-03-02T08:38:04;8.30;99.90
27200;DHT22;14714;48.106;11.546;2023-03-02T08:40:31;8.10;99.90
27200;DHT22;14714;48.106;11.546;2023-03-02T08:42:58;7.90;99.90
27200;DHT22;14714;48.106;11.546;2023-03-02T08:45:24;7.90;99.90
27200;DHT22;14714;48.106;11.546;2023-03-02T08:47:51;8.00;99.90
27200;DHT22;14714;48.106;11.546;2023-03-02T08:50:18;8.30;99.90
27200;DHT22;14714;48.106;11.546;2023-03-02T08:52:45;8.70;99.90
27200;DHT22;14714;48.106;11.546;2023-03-02T08:55:11;9.50;99.90
27200;DHT22;14714;48.106;11.546;2023-03-02T08:57:39;10.30;99.90
27200;DHT22;14714;48.106;11.546;2023-03-02T09:00:07;11.30;99.20
27200;DHT22;14714;48.106;11.546;2023-03-02T09:02:37;12.10;94.40
27200;DHT22;14714;48.106;11.546;2023-03-02T09:05:04;12.50;93.40
27200;DHT22;14714;48.106;11.546;2023-03-02T09:07:30;13.10;91.10
27200;DHT22;14714;48.106;11.546;2023-03-02T09:09:57;13.70;85.90
27200;DHT22;14714;48.106;11.546;2023-03-02T09:12:24;14.50;81.50
27200;DHT22;14714;48.106;11.546;2023-03-02T09:14:50;15.40;76.40
27200;DHT22;14714;48.106;11.546;2023-03-02T09:17:17;16.40;69.60
27200;DHT22;14714;48.106;11.546;2023-03-02T09:19:44;17.50;65.00
27200;DHT22;14714;48.106;11.546;2023-03-02T09:22:10;18.40;58.80
27200;DHT22;14714;48.106;11.546;2023-03-02T09:24:37;19.40;55.90
27200;DHT22;14714;48.106;11.546;2023-03-02T09:27:03;20.20;52.20
27200;DHT22;14714;48.106;11.546;2023-03-02T09:29:30;21.00;49.30
27200;DHT22;14714;48.106;11.546;2023-03-02T09:31:57;21.30;45.50
27200;DHT22;14714;48.106;11.546;2023-03-02T09:34:24;20.70;46.20
27200;DHT22;14714;48.106;11.546;2023-03-02T09:36:50;21.00;46.70
27200;DHT22;14714;48.106;11.546;2023-03-02T09:39:17;21.50;44.80
27200;DHT22;14714;48.106;11.546;2023-03-02T09:41:56;21.70;43.30
27200;DHT22;14714;48.106;11.546;2023-03-02T09:44:34;22.00;43.30
27200;DHT22;14714;48.106;11.546;2023-03-02T09:47:04;22.30;43.30
27200;DHT22;14714;48.106;11.546;2023-03-02T09:49:50;22.40;41.20
27200;DHT22;14714;48.106;11.546;2023-03-02T09:52:26;22.20;41.50
27200;DHT22;14714;48.106;11.546;2023-03-02T09:54:54;22.00;42.30
27200;DHT22;14714;48.106;11.546;2023-03-02T09:57:27;21.10;42.30
27200;DHT22;14714;48.106;11.546;2023-03-02T09:59:57;19.90;44.20
27200;DHT22;14714;48.106;11.546;2023-03-02T10:05:44;17.90;48.10
27200;DHT22;14714;48.106;11.546;2023-03-02T10:08:12;17.00;50.30
27200;DHT22;14714;48.106;11.546;2023-03-02T10:10:41;16.40;52.90
27200;DHT22;14714;48.106;11.546;2023-03-02T10:13:16;15.60;53.30
27200;DHT22;14714;48.106;11.546;2023-03-02T10:18:37;14.30;56.90
27200;DHT22;14714;48.106;11.546;2023-03-02T10:21:05;13.80;60.00
27200;DHT22;14714;48.106;11.546;2023-03-02T10:28:39;12.50;63.50
27200;DHT22;14714;48.106;11.546;2023-03-02T10:31:29;12.20;64.70
27200;DHT22;14714;48.106;11.546;2023-03-02T10:33:54;12.10;67.10
27200;DHT22;14714;48.106;11.546;2023-03-02T10:36:22;12.00;66.80
27200;DHT22;14714;48.106;11.546;2023-03-02T10:38:49;11.90;67.80
27200;DHT22;14714;48.106;11.546;2023-03-02T10:41:20;11.50;68.10
27200;DHT22;14714;48.106;11.546;2023-03-02T10:43:49;11.30;69.30
27200;DHT22;14714;48.106;11.546;2023-03-02T10:46:17;11.00;70.70
27200;DHT22;14714;48.106;11.546;2023-03-02T10:51:20;10.70;73.10
27200;DHT22;14714;48.106;11.546;2023-03-02T10:53:47;10.70;73.40
27200;DHT22;14714;48.106;11.546;2023-03-02T10:56:23;10.60;73.50
27200;DHT22;14714;48.106;11.546;2023-03-02T10:58:49;10.40;74.70
27200;DHT22;14714;48.106;11.546;2023-03-02T11:01:17;10.40;77.10
27200;DHT22;14714;48.106;11.546;2023-03-02T11:03:54;10.60;75.90
27200;DHT22;14714;48.106;11.546;2023-03-02T11:06:21;10.90;75.50
27200;DHT22;14714;48.106;11.546;2023-03-02T11:09:02;11.30;73.40
27200;DHT22;14714;48.106;11.546;2023-03-02T11:11:29;11.60;73.40
27200;DHT22;14714;48.106;11.546;2023-03-02T11:14:15;11.80;71.50
27200;DHT22;14714;48.106;11.546;2023-03-02T11:16:42;12.00;71.60
27200;DHT22;14714;48.106;11.546;2023-03-02T11:19:16;12.20;69.90
27200;DHT22;14714;48.106;11.546;2023-03-02T11:24:41;12.30;70.30
27200;DHT22;14714;48.106;11.546;2023-03-02T11:27:20;12.40;70.70
27200;DHT22;14714;48.106;11.546;2023-03-02T11:35:39;13.00;68.30
27200;DHT22;14714;48.106;11.546;2023-03-02T11:38:11;13.10;67.70
27200;DHT22;14714;48.106;11.546;2023-03-02T11:40:55;13.10;67.50
27200;DHT22;14714;48.106;11.546;2023-03-02T11:43:23;13.10;66.40
27200;DHT22;14714;48.106;11.546;2023-03-02T11:46:21;12.80;68.30
27200;DHT22;14714;48.106;11.546;2023-03-02T11:48:48;12.60;69.30
27200;DHT22;14714;48.106;11.546;2023-03-02T11:51:21;12.50;71.30
27200;DHT22;14714;48.106;11.546;2023-03-02T11:54:01;12.40;71.00
27200;DHT22;14714;48.106;11.546;2023-03-02T11:56:29;12.20;71.20
27200;DHT22;14714;48.106;11.546;2023-03-02T11:58:58;12.10;72.60
27200;DHT22;14714;48.106;11.546;2023-03-02T12:01:25;12.00;72.80
27200;DHT22;14714;48.106;11.546;2023-03-02T12:03:53;11.90;72.60
27200;DHT22;14714;48.106;11.546;2023-03-02T12:08:48;11.80;75.10
27200;DHT22;14714;48.106;11.546;2023-03-02T12:13:56;11.60;73.90
27200;DHT22;14714;48.106;11.546;2023-03-02T12:18:52;11.30;74.10
27200;DHT22;14714;48.106;11.546;2023-03-02T12:36:59;10.60;77.70
27200;DHT22;14714;48.106;11.546;2023-03-02T12:39:37;10.60;77.90
27200;DHT22;14714;48.106;11.546;2023-03-02T12:44:59;10.60;77.60
27200;DHT22;14714;48.106;11.546;2023-03-02T12:47:29;10.60;77.80
27200;DHT22;14714;48.106;11.546;2023-03-02T12:54:58;10.40;77.50
27200;DHT22;14714;48.106;11.546;2023-03-02T12:57:25;10.30;78.20
27200;DHT22;14714;48.106;11.546;2023-03-02T12:59:52;10.30;78.70
27200;DHT22;14714;48.106;11.546;2023-03-02T13:02:20;10.30;79.00
27200;DHT22;14714;48.106;11.546;2023-03-02T13:04:58;10.40;79.80
27200;DHT22;14714;48.106;11.546;2023-03-02T13:07:26;10.40;79.60
27200;DHT22;14714;48.106;11.546;2023-03-02T13:09:54;10.40;80.60
27200;DHT22;14714;48.106;11.546;2023-03-02T13:12:24;10.50;79.50
27200;DHT22;14714;48.106;11.546;2023-03-02T13:14:51;10.50;79.50
27200;DHT22;14714;48.106;11.546;2023-03-02T13:17:20;10.50;77.80
27200;DHT22;14714;48.106;11.546;2023-03-02T13:19:48;10.50;78.60
27200;DHT22;14714;48.106;11.546;2023-03-02T13:22:15;10.50;78.50
27200;DHT22;14714;48.106;11.546;2023-03-02T13:24:49;10.60;79.80
27200;DHT22;14714;48.106;11.546;2023-03-02T13:27:19;10.60;78.60
27200;DHT22;14714;48.106;11.546;2023-03-02T13:29:46;10.70;78.40
27200;DHT22;14714;48.106;11.546;2023-03-02T13:34:47;10.70;78.40
27200;DHT22;14714;48.106;11.546;2023-03-02T13:37:31;10.80;77.70
27200;DHT22;14714;48.106;11.546;2023-03-02T13:40:00;10.80;79.10
27200;DHT22;14714;48.106;11.546;2023-03-02T13:42:35;10.80;78.60
27200;DHT22;14714;48.106;11.546;2023-03-02T13:45:07;10.80;78.40
27200;DHT22;14714;48.106;11.546;2023-03-02T13:47:34;10.80;78.70
27200;DHT22;14714;48.106;11.546;2023-03-02T13:50:07;10.90;78.80
27200;DHT22;14714;48.106;11.546;2023-03-02T13:52:34;10.90;79.00
27200;DHT22;14714;48.106;11.546;2023-03-02T13:55:00;11.00;79.00
27200;DHT22;14714;48.106;11.546;2023-03-02T13:57:27;11.00;78.80
27200;DHT22;14714;48.106;11.546;2023-03-02T13:59:56;11.00;78.10
27200;DHT22;14714;48.106;11.546;2023-03-02T14:04:50;10.90;78.90
27200;DHT22;14714;48.106;11.546;2023-03-02T14:07:17;10.90;78.90
27200;DHT22;14714;48.106;11.546;2023-03-02T14:09:44;11.00;81.00
27200;DHT22;14714;48.106;11.546;2023-03-02T14:12:24;11.00;82.60
27200;DHT22;14714;48.106;11.546;2023-03-02T14:14:53;10.90;82.80
27200;DHT22;14714;48.106;11.546;2023-03-02T14:17:22;10.90;83.30
27200;DHT22;14714;48.106;11.546;2023-03-02T14:19:49;10.80;83.30
27200;DHT22;14714;48.106;11.546;2023-03-02T14:22:18;10.70;84.20
27200;DHT22;14714;48.106;11.546;2023-03-02T14:24:45;10.60;84.00
27200;DHT22;14714;48.106;11.546;2023-03-02T14:27:15;10.50;84.70
27200;DHT22;14714;48.106;11.546;2023-03-02T14:29:42;10.40;84.50
27200;DHT22;14714;48.106;11.546;2023-03-02T14:32:10;10.30;85.60
27200;DHT22;14714;48.106;11.546;2023-03-02T14:34:37;10.20;85.70
27200;DHT22;14714;48.106;11.546;2023-03-02T14:37:09;10.20;86.10
27200;DHT22;14714;48.106;11.546;2023-03-02T14:39:38;10.20;86.10
27200;DHT22;14714;48.106;11.546;2023-03-02T14:42:09;10.10;87.00
27200;DHT22;14714;48.106;11.546;2023-03-02T14:44:36;10.00;87.40
27200;DHT22;14714;48.106;11.546;2023-03-02T14:47:03;9.90;87.80
27200;DHT22;14714;48.106;11.546;2023-03-02T14:49:29;9.80;89.20
27200;DHT22;14714;48.106;11.546;2023-03-02T14:52:00;9.70;89.20
27200;DHT22;14714;48.106;11.546;2023-03-02T14:54:30;9.70;89.70
27200;DHT22;14714;48.106;11.546;2023-03-02T14:56:58;9.60;89.60
27200;DHT22;14714;48.106;11.546;2023-03-02T14:59:25;9.50;89.90
27200;DHT22;14714;48.106;11.546;2023-03-02T15:01:52;9.50;90.40
27200;DHT22;14714;48.106;11.546;2023-03-02T15:04:18;9.40;90.50
27200;DHT22;14714;48.106;11.546;2023-03-02T15:06:45;9.40;90.50
27200;DHT22;14714;48.106;11.546;2023-03-02T15:09:12;9.30;90.80
27200;DHT22;14714;48.106;11.546;2023-03-02T15:11:39;9.20;91.00
27200;DHT22;14714;48.106;11.546;2023-03-02T15:14:05;9.10;91.20
27200;DHT22;14714;48.106;11.546;2023-03-02T15:16:32;9.10;91.50
27200;DHT22;14714;48.106;11.546;2023-03-02T15:18:58;9.00;91.60
27200;DHT22;14714;48.106;11.546;2023-03-02T15:21:25;8.90;91.60
27200;DHT22;14714;48.106;11.546;2023-03-02T15:23:52;8.80;92.00
27200;DHT22;14714;48.106;11.546;2023-03-02T15:26:19;8.80;92.20
27200;DHT22;14714;48.106;11.546;2023-03-02T15:28:48;8.70;92.40
27200;DHT22;14714;48.106;11.546;2023-03-02T15:31:15;8.60;92.90
27200;DHT22;14714;48.106;11.546;2023-03-02T15:33:42;8.50;92.90
27200;DHT22;14714;48.106;11.546;2023-03-02T15:36:11;8.40;93.20
27200;DHT22;14714;48.106;11.546;2023-03-02T15:38:38;8.30;93.20
27200;DHT22;14714;48.106;11.546;2023-03-02T15:41:05;8.20;93.70
27200;DHT22;14714;48.106;11.546;2023-03-02T15:43:33;8.10;93.90
27200;DHT22;14714;48.106;11.546;2023-03-02T15:45:59;8.00;94.30
27200;DHT22;14714;48.106;11.546;2023-03-02T15:48:28;7.80;94.60
27200;DHT22;14714;48.106;11.546;2023-03-02T15:50:58;7.80;95.00
27200;DHT22;14714;48.106;11.546;2023-03-02T15:53:26;7.60;95.30
27200;DHT22;14714;48.106;11.546;2023-03-02T15:55:52;7.60;95.70
27200;DHT22;14714;48.106;11.546;2023-03-02T15:58:19;7.50;96.00
27200;DHT22;14714;48.106;11.546;2023-03-02T16:00:50;7.50;96.20
27200;DHT22;14714;48.106;11.546;2023-03-02T16:03:22;7.40;96.60
27200;DHT22;14714;48.106;11.546;2023-03-02T16:05:49;7.30;97.00
27200;DHT22;14714;48.106;11.546;2023-03-02T16:08:16;7.20;97.30
27200;DHT22;14714;48.106;11.546;2023-03-02T16:10:42;7.20;97.80
27200;DHT22;14714;48.106;11.546;2023-03-02T16:13:09;7.10;98.00
27200;DHT22;14714;48.106;11.546;2023-03-02T16:15:39;7.00;98.50
27200;DHT22;14714;48.106;11.546;2023-03-02T16:18:09;6.90;98.80
27200;DHT22;14714;48.106;11.546;2023-03-02T16:20:36;6.80;99.50
27200;DHT22;14714;48.106;11.546;2023-03-02T16:23:04;6.80;99.90
27200;DHT22;14714;48.106;11.546;2023-03-02T16:25:35;6.70;99.90
27200;DHT22;14714;48.106;11.546;2023-03-02T16:28:08;6.60;99.90
27200;DHT22;14714;48.106;11.546;2023-03-02T16:30:35;6.50;99.90
27200;DHT22;14714;48.106;11.546;2023-03-02T16:33:02;6.40;99.90
27200;DHT22;14714;48.106;11.546;2023-03-02T16:35:30;6.30;99.90
27200;DHT22;14714;48.106;11.546;2023-03-02T16:37:58;6.20;99.90
27200;DHT22;14714;48.106;11.546;2023-03-02T16:40:25;6.10;99.90